createdAt,value
2024-05-09T00:02:27.326Z,37.6
2024-05-09T00:07:27.233Z,36.45
2024-05-09T00:12:27.232Z,37.6
2024-05-09T00:17:27.334Z,37.65
2024-05-09T00:22:27.252Z,37.6
2024-05-09T00:27:27.248Z,37.25
2024-05-09T00:32:27.364Z,36.45
2024-05-09T00:37:27.248Z,37.65
2024-05-09T00:42:27.280Z,37.65
2024-05-09T00:52:27.275Z,37.55
2024-05-09T00:57:27.307Z,37.65
2024-05-09T01:02:27.419Z,37.6
2024-05-09T01:07:27.333Z,36.45
2024-05-09T01:12:27.508Z,36.45
2024-05-09T01:17:27.739Z,36.45
2024-05-09T01:22:27.648Z,36.35
2024-05-09T01:27:27.579Z,36.35
2024-05-09T01:32:27.517Z,36.35
2024-05-09T01:37:27.454Z,36.45
2024-05-09T01:42:27.443Z,36.35
2024-05-09T01:47:27.575Z,36.45
2024-05-09T01:52:27.479Z,36.35
2024-05-09T01:57:27.465Z,36.45
2024-05-09T02:02:27.555Z,37.6
2024-05-09T02:07:27.489Z,49.9
2024-05-09T02:12:27.580Z,49.8
2024-05-09T02:17:27.711Z,49.8
2024-05-09T02:22:27.571Z,49.9
2024-05-09T02:27:27.572Z,47.35
2024-05-09T02:32:27.640Z,47.35
2024-05-09T02:37:27.676Z,47.25
2024-05-09T02:42:27.817Z,44.75
2024-05-09T02:47:27.742Z,44.7
2024-05-09T02:52:27.600Z,44.85
2024-05-09T02:57:27.606Z,44.75
2024-05-09T03:07:27.640Z,44.8
2024-05-09T03:12:27.733Z,42.25
2024-05-09T03:17:27.882Z,42.3
2024-05-09T03:22:27.695Z,42.25
2024-05-09T03:27:27.664Z,42.15
2024-05-09T03:32:27.848Z,42.2
2024-05-09T03:37:27.685Z,42.3
2024-05-09T03:42:27.733Z,42.2
2024-05-09T03:47:27.984Z,42.3
2024-05-09T03:52:27.805Z,39.85
2024-05-09T03:57:27.763Z,39.85
2024-05-09T04:02:27.981Z,39.9
2024-05-09T04:07:27.770Z,39.85
2024-05-09T04:12:27.823Z,39.9
2024-05-09T04:17:27.886Z,39.85
2024-05-09T04:22:27.823Z,39.85
2024-05-09T04:27:27.820Z,38.7
2024-05-09T04:32:27.885Z,39.85
2024-05-09T04:37:27.845Z,39.85
2024-05-09T04:42:27.877Z,39.9
2024-05-09T04:47:28.087Z,38.8
2024-05-09T04:52:27.899Z,39.85
2024-05-09T04:57:27.923Z,39.95
2024-05-09T05:02:27.980Z,38.8
2024-05-09T05:07:27.933Z,39.85
2024-05-09T05:12:28.033Z,39.85
2024-05-09T05:17:28.117Z,39.95
2024-05-09T05:22:27.925Z,38.8
2024-05-09T05:27:27.950Z,38.75
2024-05-09T05:32:28.282Z,38.7
2024-05-09T05:37:28.048Z,38.8
2024-05-09T05:42:28.043Z,38.7
2024-05-09T05:47:28.187Z,39.95
2024-05-09T05:52:28.052Z,39.85
2024-05-09T05:57:28.039Z,38.7
2024-05-09T06:02:28.264Z,38.7
2024-05-09T06:17:28.295Z,38.8
2024-05-09T06:47:28.320Z,38.7
2024-05-09T07:02:28.282Z,38.7
2024-05-09T07:17:28.390Z,37.65
2024-05-09T07:22:28.247Z,37.6
2024-05-09T07:53:14.034Z,37.55
2024-05-09T08:27:28.425Z,37.65
2024-05-09T08:52:28.417Z,37.55
2024-05-09T09:22:28.556Z,36.45
2024-05-09T10:02:28.765Z,35.5
2024-05-09T10:52:28.749Z,35.4
2024-05-09T11:37:28.807Z,34.3
2024-05-09T13:22:28.816Z,34.35
2024-05-09T14:17:28.837Z,33.05
2024-05-09T14:52:28.806Z,34.35
2024-05-09T15:17:28.838Z,33.05
2024-05-09T15:57:28.822Z,32.1
2024-05-09T16:02:28.975Z,33.15
2024-05-09T16:07:28.826Z,34.25
2024-05-09T16:27:28.824Z,33.05
2024-05-09T16:37:29.747Z,33.15
2024-05-09T16:42:28.818Z,33.1
2024-05-09T17:02:28.952Z,38.8
2024-05-09T17:22:28.819Z,44.75
2024-05-09T17:32:28.918Z,44.85
2024-05-09T17:37:28.858Z,42.3
2024-05-09T17:42:28.894Z,42.25
2024-05-09T17:47:28.931Z,42.3
2024-05-09T17:52:28.902Z,39.9
2024-05-09T17:57:28.813Z,39.85
2024-05-09T18:12:28.816Z,40
2024-05-09T18:17:28.902Z,39.95
2024-05-09T18:22:28.821Z,38.8
2024-05-09T18:27:28.809Z,38.8
2024-05-09T18:37:29.161Z,38.7
2024-05-09T18:47:28.889Z,38.8
2024-05-09T18:52:28.830Z,37.6
2024-05-09T19:02:29.079Z,37.55
2024-05-09T19:47:28.885Z,37.65
2024-05-09T19:52:28.825Z,37.6
2024-05-09T20:17:28.950Z,37.55
2024-05-09T20:28:31.230Z,37.55
2024-05-09T20:38:31.108Z,38.8
2024-05-09T20:43:33.188Z,37.55
2024-05-09T20:48:33.248Z,37.55
2024-05-09T20:53:31.120Z,37.65
2024-05-09T21:23:31.123Z,37.6
2024-05-09T21:38:31.107Z,38.75
2024-05-09T21:58:31.127Z,37.6
2024-05-09T22:23:31.256Z,37.6
2024-05-09T22:33:31.434Z,37.55
2024-05-09T22:43:31.181Z,37.55
2024-05-09T22:48:31.185Z,37.55
2024-05-09T22:53:31.141Z,37.65
2024-05-09T22:58:31.252Z,37.6
2024-05-09T23:03:31.307Z,37.55
2024-05-09T23:08:31.138Z,37.5
2024-05-09T23:13:31.221Z,37.55
2024-05-09T23:18:31.209Z,37.65
2024-05-09T23:23:31.154Z,37.55
2024-05-09T23:28:31.255Z,37.55
2024-05-09T23:33:31.248Z,37.65
2024-05-09T23:38:31.158Z,37.55
2024-05-09T23:43:31.200Z,37.65
2024-05-09T23:48:31.260Z,37.6
2024-05-09T23:53:31.155Z,37.65
2024-05-09T23:58:31.253Z,37.55
